createdAt,value
2019-01-11T09:39:09.313Z,16.80
2019-01-11T09:40:09.299Z,15.40
2019-01-11T09:41:09.383Z,12.90
2019-01-11T09:42:09.266Z,19.40
2019-01-11T09:43:10.282Z,15.40
2019-01-11T09:44:09.268Z,30.60
2019-01-11T09:45:09.322Z,18.90
2019-01-11T09:46:09.216Z,20.50
2019-01-11T09:47:09.288Z,30.50
2019-01-11T09:48:09.201Z,21.00
2019-01-11T09:49:09.238Z,27.40
2019-01-11T09:50:09.185Z,21.70
2019-01-11T09:51:15.662Z,35.40
2019-01-11T09:52:10.150Z,26.30
2019-01-11T09:53:09.227Z,20.30
2019-01-11T09:54:09.163Z,20.20
2019-01-11T09:55:10.165Z,26.00
2019-01-11T09:56:09.115Z,58.10
2019-01-11T09:57:09.157Z,49.20
2019-01-11T09:58:09.083Z,35.20
2019-01-11T09:59:09.203Z,45.20
2019-01-11T10:00:09.071Z,47.90
2019-01-11T10:01:09.083Z,58.70
2019-01-11T10:02:09.042Z,46.80
2019-01-11T10:03:09.093Z,32.90
2019-01-11T10:04:09.038Z,33.20
2019-01-11T10:05:09.115Z,22.00
2019-01-11T10:06:08.991Z,19.00
2019-01-11T10:07:09.019Z,30.90
2019-01-11T10:08:08.974Z,29.20
2019-01-11T10:09:09.086Z,34.10
2019-01-11T10:10:08.951Z,22.70
2019-01-11T10:11:09.045Z,34.90
2019-01-11T10:12:08.931Z,29.00
2019-01-11T10:13:08.961Z,30.50
2019-01-11T10:14:08.909Z,20.70
2019-01-11T10:15:09.009Z,21.60
2019-01-11T10:16:08.883Z,18.90
2019-01-11T10:17:08.884Z,13.40
2019-01-11T10:18:08.893Z,15.70
2019-01-11T10:19:08.899Z,13.50
2019-01-11T10:20:08.865Z,15.00
2019-01-11T10:21:08.921Z,16.00
2019-01-11T10:22:08.818Z,15.30
2019-01-11T10:23:08.833Z,19.80
2019-01-11T10:24:08.803Z,21.90
2019-01-11T10:25:09.896Z,20.70
2019-01-11T10:26:08.776Z,16.20
2019-01-11T10:27:08.863Z,15.60
2019-01-11T10:28:08.751Z,14.30
2019-01-11T10:29:08.765Z,14.80
2019-01-11T10:30:08.743Z,12.90
2019-01-11T10:31:08.781Z,15.40
2019-01-11T10:32:08.708Z,14.40
2019-01-11T10:33:08.802Z,13.20
2019-01-11T10:34:08.683Z,13.20
2019-01-11T10:35:08.766Z,13.70
2019-01-11T10:36:08.661Z,16.60
2019-01-11T10:37:08.723Z,17.20
2019-01-11T10:38:08.638Z,17.20
2019-01-11T10:39:08.735Z,13.40
2019-01-11T10:40:08.627Z,17.70
2019-01-11T10:41:08.644Z,16.40
2019-01-11T10:42:08.598Z,14.30
2019-01-11T10:43:08.663Z,14.00
2019-01-11T10:44:08.569Z,15.10
2019-01-11T10:45:09.631Z,14.80
2019-01-11T10:46:08.549Z,18.00
2019-01-11T10:47:08.589Z,16.30
2019-01-11T10:48:08.523Z,15.40
2019-01-11T10:49:08.607Z,17.90
2019-01-11T10:50:08.509Z,23.90
2019-01-11T10:51:08.563Z,18.20
2019-01-11T10:52:08.480Z,16.90
2019-01-11T10:53:08.527Z,17.30
2019-01-11T10:54:08.458Z,15.70
2019-01-11T10:55:08.615Z,19.80
2019-01-11T10:56:08.449Z,15.90
2019-01-11T10:57:08.457Z,15.30
2019-01-11T10:58:08.417Z,15.40
2019-01-11T10:59:08.469Z,19.20
2019-01-11T11:00:08.393Z,21.70
2019-01-11T11:01:08.524Z,16.70
2019-01-11T11:02:08.390Z,13.00
2019-01-11T11:03:08.391Z,17.00
2019-01-11T11:04:08.344Z,16.50
2019-01-11T11:05:08.409Z,17.70
2019-01-11T11:06:08.347Z,12.00
2019-01-11T11:07:08.423Z,14.10
2019-01-11T11:08:08.307Z,13.90
2019-01-11T11:09:08.335Z,11.50
2019-01-11T11:10:08.275Z,12.10
2019-01-11T11:11:08.387Z,13.60
2019-01-11T11:12:08.260Z,11.90
2019-01-11T11:13:08.365Z,12.50
2019-01-11T11:14:08.237Z,26.10
2019-01-11T11:15:08.279Z,14.00
2019-01-11T11:16:08.232Z,13.60
2019-01-11T11:17:08.295Z,17.50
2019-01-11T11:18:08.193Z,14.90
2019-01-11T11:19:08.201Z,12.90
2019-01-11T11:20:08.167Z,11.50
2019-01-11T11:21:08.351Z,15.60
2019-01-11T11:22:08.143Z,15.50
2019-01-11T11:23:08.231Z,11.60
2019-01-11T11:24:08.125Z,11.40
2019-01-11T11:25:08.267Z,9.30
2019-01-11T11:26:08.108Z,9.80
2019-01-11T11:27:08.189Z,9.20
2019-01-11T11:28:08.081Z,8.30
2019-01-11T11:29:10.246Z,8.40
2019-01-11T11:30:08.069Z,9.90
2019-01-11T11:31:08.084Z,9.30
2019-01-11T11:32:08.057Z,9.30
2019-01-11T11:33:08.473Z,10.10
2019-01-11T11:34:08.012Z,10.30
2019-01-11T11:35:08.107Z,10.70
2019-01-11T11:36:07.989Z,12.50
2019-01-11T11:37:08.553Z,13.50
2019-01-11T11:38:07.969Z,14.00
2019-01-11T11:39:08.037Z,14.70
2019-01-11T11:40:07.950Z,12.80
2019-01-11T11:41:08.289Z,16.60
2019-01-11T11:42:07.938Z,14.00
2019-01-11T11:43:08.984Z,22.30
2019-01-11T11:44:07.896Z,21.70
2019-01-11T11:45:07.975Z,17.70
2019-01-11T11:46:07.879Z,40.70
2019-01-11T11:47:07.932Z,21.80
2019-01-11T11:48:07.855Z,17.90
2019-01-11T11:49:07.904Z,16.00
2019-01-11T11:50:07.861Z,17.80
2019-01-11T11:51:07.920Z,30.90
2019-01-11T11:52:07.831Z,23.40
2019-01-11T11:53:07.827Z,17.00
2019-01-11T11:54:07.783Z,19.80
2019-01-11T11:55:07.776Z,18.60
2019-01-11T11:56:07.762Z,18.30
2019-01-11T11:57:07.854Z,15.40
2019-01-11T11:58:07.814Z,16.20
2019-01-11T11:59:07.774Z,15.30
2019-01-11T12:00:07.720Z,14.30
2019-01-11T12:01:07.781Z,15.30
2019-01-11T12:02:07.693Z,13.80
2019-01-11T12:03:08.710Z,12.70
2019-01-11T12:04:07.674Z,14.00
2019-01-11T12:05:07.709Z,13.60
2019-01-11T12:06:07.655Z,16.40
2019-01-11T12:07:07.821Z,20.10
2019-01-11T12:08:07.642Z,14.40
2019-01-11T12:09:07.738Z,13.00
2019-01-11T12:10:07.600Z,13.00
2019-01-11T12:11:07.649Z,11.50
2019-01-11T12:12:07.584Z,13.80
2019-01-11T12:13:07.599Z,11.30
2019-01-11T12:14:07.563Z,15.60
2019-01-11T12:15:08.599Z,25.30
2019-01-11T12:16:07.535Z,17.70
2019-01-11T12:17:07.592Z,15.70
2019-01-11T12:18:07.538Z,11.30
2019-01-11T12:19:07.608Z,12.40
2019-01-11T12:20:07.495Z,20.90
2019-01-11T12:21:07.512Z,13.30
2019-01-11T12:22:07.472Z,18.80
2019-01-11T12:23:07.564Z,14.70
2019-01-11T12:24:07.446Z,15.00
2019-01-11T12:25:07.544Z,19.90
2019-01-11T12:26:07.428Z,18.70
2019-01-11T12:27:08.479Z,12.50
2019-01-11T12:28:07.405Z,19.70
2019-01-11T12:29:07.512Z,30.80
2019-01-11T12:30:07.382Z,31.40
2019-01-11T12:31:07.484Z,24.90
2019-01-11T12:32:07.359Z,25.60
2019-01-11T12:33:08.422Z,16.30
2019-01-11T12:34:07.365Z,21.40
2019-01-11T12:35:07.414Z,16.70
2019-01-11T12:36:07.311Z,15.00
2019-01-11T12:37:07.319Z,14.50
2019-01-11T12:38:13.534Z,34.80
2019-01-11T12:39:08.315Z,25.20
2019-01-11T12:40:07.272Z,19.60
2019-01-11T12:41:07.349Z,24.20
2019-01-11T12:42:07.242Z,20.70
2019-01-11T12:43:07.262Z,19.90
2019-01-11T12:44:07.236Z,15.00
2019-01-11T12:45:07.279Z,14.00
2019-01-11T12:46:07.203Z,14.50
2019-01-11T12:47:07.290Z,16.40
2019-01-11T12:48:07.177Z,12.50
2019-01-11T12:49:07.237Z,13.10
2019-01-11T12:50:07.157Z,13.00
2019-01-11T12:51:07.218Z,21.60
2019-01-11T12:52:07.134Z,32.00
2019-01-11T12:53:07.232Z,21.00
2019-01-11T12:54:07.109Z,17.10
2019-01-11T12:55:07.183Z,13.20
2019-01-11T12:56:07.087Z,17.20
2019-01-11T12:57:07.160Z,15.10
2019-01-11T12:58:07.071Z,17.40
2019-01-11T12:59:08.214Z,14.80
2019-01-11T13:00:07.064Z,16.60
2019-01-11T13:01:07.081Z,17.30
2019-01-11T13:02:07.022Z,10.80
2019-01-11T13:03:07.100Z,14.10
2019-01-11T13:04:07.010Z,13.00
2019-01-11T13:05:07.038Z,15.10
2019-01-11T13:06:06.980Z,16.70
2019-01-11T13:07:07.024Z,14.80
2019-01-11T13:08:06.952Z,15.40
2019-01-11T13:09:07.040Z,16.00
2019-01-11T13:10:06.952Z,13.60
2019-01-11T13:11:06.951Z,16.50
2019-01-11T13:12:06.912Z,24.60
2019-01-11T13:13:06.965Z,38.40
2019-01-11T13:14:06.887Z,25.90
2019-01-11T13:15:07.016Z,34.50
2019-01-11T13:16:06.865Z,23.20
2019-01-11T13:17:06.886Z,19.00
2019-01-11T13:18:06.846Z,20.50
2019-01-11T13:19:06.905Z,17.00
2019-01-11T13:20:06.829Z,17.60
2019-01-11T13:21:06.860Z,19.10
2019-01-11T13:22:06.799Z,19.30
2019-01-11T13:23:06.829Z,16.10
2019-01-11T13:24:06.790Z,18.40
2019-01-11T13:25:06.848Z,19.10
2019-01-11T13:26:06.768Z,17.30
2019-01-11T13:27:06.860Z,18.30
2019-01-11T13:28:06.731Z,18.80
2019-01-11T13:29:06.771Z,17.90
2019-01-11T13:30:06.708Z,17.90
2019-01-11T13:31:06.816Z,15.30
2019-01-11T13:32:06.688Z,19.10
2019-01-11T13:33:06.697Z,20.50
2019-01-11T13:34:06.666Z,21.90
2019-01-11T13:35:06.712Z,17.10
2019-01-11T13:36:06.657Z,18.10
2019-01-11T13:37:06.647Z,14.90
2019-01-11T13:38:06.641Z,21.10
2019-01-11T13:39:06.645Z,22.10
2019-01-11T13:40:06.600Z,14.80
2019-01-11T13:41:07.711Z,18.70
2019-01-11T13:42:06.603Z,29.40
2019-01-11T13:43:06.667Z,26.50
2019-01-11T13:44:06.555Z,29.40
2019-01-11T13:45:06.593Z,26.80
2019-01-11T13:46:06.573Z,24.30
2019-01-11T13:47:06.591Z,19.40
2019-01-11T13:48:06.508Z,22.20
2019-01-11T13:49:06.607Z,14.30
2019-01-11T13:50:06.494Z,16.90
2019-01-11T13:51:06.520Z,25.50
2019-01-11T13:52:07.397Z,25.00
2019-01-11T13:53:06.537Z,19.80
2019-01-11T13:54:06.438Z,17.80
2019-01-11T13:55:06.448Z,17.80
2019-01-11T13:56:06.414Z,27.30
2019-01-11T13:57:06.495Z,28.40
2019-01-11T13:58:06.391Z,28.80
2019-01-11T13:59:06.477Z,24.60
2019-01-11T14:00:06.372Z,33.60
2019-01-11T14:01:06.390Z,23.20
2019-01-11T14:02:06.462Z,45.00
2019-01-11T14:03:06.400Z,25.30
2019-01-11T14:04:06.325Z,25.90
2019-01-11T14:05:07.329Z,30.40
2019-01-11T14:06:06.306Z,29.60
2019-01-11T14:07:07.385Z,23.60
2019-01-11T14:08:06.312Z,30.70
2019-01-11T14:09:06.336Z,25.60
2019-01-11T14:10:06.260Z,22.70
2019-01-11T14:11:06.355Z,17.60
2019-01-11T14:12:06.256Z,17.00
2019-01-11T14:13:06.268Z,26.70
2019-01-11T14:14:06.213Z,16.10
2019-01-11T14:15:06.276Z,21.70
2019-01-11T14:16:06.186Z,12.20
2019-01-11T14:17:06.222Z,14.80
2019-01-11T14:18:06.763Z,12.80
2019-01-11T14:19:06.205Z,12.40
2019-01-11T14:20:06.148Z,11.10
2019-01-11T14:21:06.222Z,15.10
2019-01-11T14:22:06.158Z,18.80
2019-01-11T14:23:06.164Z,18.40
2019-01-11T14:24:06.102Z,13.70
2019-01-11T14:25:06.142Z,21.30
2019-01-11T14:26:06.082Z,20.10
2019-01-11T14:27:06.196Z,18.10
2019-01-11T14:28:06.079Z,16.60
2019-01-11T14:29:06.066Z,12.80
2019-01-11T14:30:06.045Z,12.50
2019-01-11T14:31:06.032Z,7.90
2019-01-11T14:32:06.015Z,13.60
2019-01-11T14:33:06.152Z,12.20
2019-01-11T14:34:05.997Z,10.20
2019-01-11T14:35:06.012Z,14.20
2019-01-11T14:36:05.970Z,8.60
2019-01-11T14:37:06.023Z,10.80
2019-01-11T14:38:05.970Z,9.80
2019-01-11T14:39:06.039Z,9.20
2019-01-11T14:40:05.938Z,9.10
2019-01-11T14:41:05.950Z,8.30
2019-01-11T14:42:05.918Z,8.70
2019-01-11T14:43:06.008Z,8.80
2019-01-11T14:44:05.878Z,8.60
2019-01-11T14:45:06.903Z,9.80
2019-01-11T14:46:05.858Z,9.00
2019-01-11T14:47:05.895Z,13.00
2019-01-11T14:48:05.865Z,6.80
2019-01-11T14:49:05.906Z,10.30
2019-01-11T14:50:05.821Z,9.20
2019-01-11T14:51:05.921Z,9.50
2019-01-11T14:52:05.794Z,10.30
2019-01-11T14:53:05.866Z,7.20
2019-01-11T14:54:05.766Z,7.90
2019-01-11T14:55:05.844Z,10.10
2019-01-11T14:56:05.747Z,8.10
2019-01-11T14:57:05.780Z,9.30
2019-01-11T14:58:05.744Z,10.30
2019-01-11T14:59:05.856Z,8.80
2019-01-11T15:00:05.702Z,9.80
2019-01-11T15:01:05.820Z,8.20
2019-01-11T15:02:05.678Z,14.10
2019-01-11T15:03:05.735Z,14.10
2019-01-11T15:04:05.664Z,12.00
2019-01-11T15:05:05.714Z,9.80
2019-01-11T15:06:05.635Z,8.40
2019-01-11T15:07:05.727Z,8.70
2019-01-11T15:08:05.608Z,12.40
2019-01-11T15:09:05.670Z,8.60
2019-01-11T15:10:05.598Z,9.50
2019-01-11T15:11:05.649Z,7.30
2019-01-11T15:12:05.569Z,8.10
2019-01-11T15:13:05.605Z,8.70
2019-01-11T15:14:05.557Z,9.10
2019-01-11T15:15:05.579Z,11.30
2019-01-11T15:16:05.519Z,10.60
2019-01-11T15:17:05.595Z,10.20
2019-01-11T15:18:05.520Z,8.80
2019-01-11T15:19:05.538Z,9.10
2019-01-11T15:20:05.478Z,12.80
2019-01-11T15:21:05.518Z,14.30
2019-01-11T15:22:05.996Z,14.60
2019-01-11T15:23:05.590Z,13.70
2019-01-11T15:24:05.431Z,42.70
2019-01-11T15:25:05.546Z,25.80
2019-01-11T15:26:05.414Z,17.30
2019-01-11T15:27:05.456Z,19.90
2019-01-11T15:28:05.411Z,17.60
2019-01-11T15:29:05.510Z,19.50
2019-01-11T15:30:05.370Z,27.30
2019-01-11T15:31:05.382Z,25.20
2019-01-11T15:32:05.348Z,20.30
2019-01-11T15:33:05.398Z,16.90
2019-01-11T15:34:05.346Z,12.60
2019-01-11T15:35:05.412Z,20.70
2019-01-11T15:36:05.301Z,21.20
2019-01-11T15:37:05.308Z,21.00
2019-01-11T15:38:05.275Z,23.20
2019-01-11T15:39:05.373Z,23.30
2019-01-11T15:40:05.253Z,25.20
2019-01-11T15:41:05.351Z,30.60
2019-01-11T15:42:05.243Z,29.90
2019-01-11T15:43:05.269Z,26.50
2019-01-11T15:44:05.242Z,34.80
2019-01-11T15:45:05.325Z,33.40
2019-01-11T15:46:05.244Z,36.10
2019-01-11T15:47:05.293Z,26.10
2019-01-11T15:48:05.167Z,23.60
2019-01-11T15:49:05.297Z,28.80
2019-01-11T15:50:05.154Z,32.60
2019-01-11T15:51:05.332Z,36.00
2019-01-11T15:52:05.155Z,42.10
2019-01-11T15:53:05.133Z,27.30
2019-01-11T15:54:05.101Z,27.10
2019-01-11T15:55:05.200Z,37.90
2019-01-11T15:56:05.084Z,29.90
2019-01-11T15:57:05.241Z,45.20
2019-01-11T15:58:05.070Z,38.00
2019-01-11T15:59:05.105Z,32.00
2019-01-11T16:00:05.064Z,35.30
2019-01-11T16:01:05.171Z,38.20
2019-01-11T16:02:05.014Z,57.70
2019-01-11T16:03:05.142Z,34.70
2019-01-11T16:04:04.997Z,47.50
2019-01-11T16:05:05.150Z,40.30
2019-01-11T16:06:04.967Z,39.30
2019-01-11T16:07:05.082Z,26.30
2019-01-11T16:08:04.943Z,32.20
2019-01-11T16:09:05.046Z,35.20
2019-01-11T16:10:04.979Z,45.90
2019-01-11T16:11:05.009Z,38.20
2019-01-11T16:12:04.904Z,32.30
2019-01-11T16:13:04.986Z,63.30
2019-01-11T16:14:04.892Z,50.60
2019-01-11T16:15:04.948Z,59.80
2019-01-11T16:16:04.873Z,79.10
2019-01-11T16:17:04.917Z,136.20
2019-01-11T16:18:04.844Z,121.30
2019-01-11T16:19:04.827Z,87.50
2019-01-11T16:20:04.814Z,72.40
2019-01-11T16:21:04.887Z,45.00
2019-01-11T16:22:04.785Z,52.70
2019-01-11T16:23:04.821Z,49.70
2019-01-11T16:24:04.763Z,54.60
2019-01-11T16:25:04.788Z,63.80
2019-01-11T16:26:04.768Z,59.50
2019-01-11T16:27:05.787Z,52.80
2019-01-11T16:28:04.720Z,85.50
2019-01-11T16:29:04.727Z,136.10
2019-01-11T16:30:04.696Z,94.20
2019-01-11T16:31:04.714Z,89.30
2019-01-11T16:32:04.688Z,40.10
2019-01-11T16:33:04.769Z,79.30
2019-01-11T16:34:04.655Z,108.00
2019-01-11T16:35:04.739Z,133.50
2019-01-11T16:36:04.661Z,79.30
2019-01-11T16:37:04.700Z,74.00
2019-01-11T16:38:04.611Z,68.80
2019-01-11T16:39:05.697Z,41.30
2019-01-11T16:40:04.589Z,33.40
2019-01-11T16:41:05.585Z,48.70
2019-01-11T16:42:04.594Z,36.30
2019-01-11T16:43:04.609Z,38.30
2019-01-11T16:44:04.545Z,39.40
2019-01-11T16:45:05.597Z,48.80
2019-01-11T16:46:04.521Z,52.70
2019-01-11T16:47:04.577Z,50.00
2019-01-11T16:48:04.515Z,40.30
2019-01-11T16:49:05.535Z,52.50
2019-01-11T16:50:04.476Z,52.60
2019-01-11T16:51:05.610Z,61.30
2019-01-11T16:52:04.472Z,54.80
2019-01-11T16:53:05.570Z,47.80
2019-01-11T16:54:04.431Z,41.20
2019-01-11T16:55:06.463Z,40.90
2019-01-11T16:56:04.410Z,73.10
2019-01-11T16:57:05.447Z,42.90
2019-01-11T16:58:04.407Z,34.80
2019-01-11T16:59:05.485Z,30.90
2019-01-11T17:00:04.368Z,42.30
2019-01-11T17:01:04.425Z,30.80
2019-01-11T17:02:04.345Z,32.80
2019-01-11T17:03:04.533Z,43.20
2019-01-11T17:04:04.323Z,43.80
2019-01-11T17:05:04.358Z,52.40
2019-01-11T17:06:04.298Z,55.70
2019-01-11T17:07:04.339Z,52.60
2019-01-11T17:08:04.317Z,40.00
2019-01-11T17:09:04.293Z,44.70
2019-01-11T17:10:04.256Z,37.70
2019-01-11T17:11:04.429Z,38.80
2019-01-11T17:12:04.233Z,36.30
2019-01-11T17:13:04.264Z,43.70
2019-01-11T17:14:04.211Z,38.60
2019-01-11T17:15:04.303Z,38.30
2019-01-11T17:16:04.187Z,36.50
2019-01-11T17:17:04.277Z,39.30
2019-01-11T17:18:04.187Z,32.00
2019-01-11T17:19:05.299Z,36.90
2019-01-11T17:20:04.153Z,32.50
2019-01-11T17:21:04.209Z,53.40
2019-01-11T17:22:04.119Z,39.80
2019-01-11T17:23:04.140Z,36.50
2019-01-11T17:24:04.111Z,52.20
2019-01-11T17:25:04.101Z,50.00
2019-01-11T17:26:04.079Z,51.70
2019-01-11T17:27:04.096Z,53.90
2019-01-11T17:28:04.055Z,57.90
2019-01-11T17:29:04.108Z,28.10
2019-01-11T17:30:04.037Z,41.60
2019-01-11T17:31:04.044Z,51.90
2019-01-11T17:32:04.020Z,58.60
2019-01-11T17:33:04.117Z,42.20
2019-01-11T17:34:04.001Z,52.00
2019-01-11T17:35:04.000Z,55.10
2019-01-11T17:36:03.959Z,35.10
2019-01-11T17:37:03.968Z,43.70
2019-01-11T17:38:03.948Z,44.00
2019-01-11T17:39:03.963Z,38.50
2019-01-11T17:40:03.919Z,31.60
2019-01-11T17:41:03.926Z,36.50
2019-01-11T17:42:03.892Z,29.50
2019-01-11T17:43:03.896Z,30.00
2019-01-11T17:44:03.887Z,20.90
2019-01-11T17:45:03.873Z,21.40
2019-01-11T17:46:03.862Z,36.10
2019-01-11T17:47:03.849Z,27.00
2019-01-11T17:48:03.835Z,26.40
2019-01-11T17:49:03.861Z,27.20
2019-01-11T17:50:03.817Z,29.40
2019-01-11T17:51:03.819Z,31.60
2019-01-11T17:52:03.786Z,16.70
2019-01-11T17:53:03.787Z,25.20
2019-01-11T17:54:03.801Z,39.40
2019-01-11T17:55:03.761Z,33.90
2019-01-11T17:56:03.746Z,34.10
2019-01-11T17:57:03.755Z,28.20
2019-01-11T17:58:03.728Z,24.50
2019-01-11T17:59:03.731Z,28.60
2019-01-11T18:00:03.732Z,25.90
2019-01-11T18:01:03.700Z,29.70
2019-01-11T18:02:03.756Z,27.50
2019-01-11T18:03:03.670Z,22.40
2019-01-11T18:04:03.661Z,22.60
2019-01-11T18:05:03.681Z,25.00
2019-01-11T18:06:03.788Z,20.10
2019-01-11T18:07:03.634Z,34.50
2019-01-11T18:08:03.614Z,28.40
2019-01-11T18:09:03.607Z,25.70
2019-01-11T18:10:03.619Z,23.50
2019-01-11T18:11:03.580Z,21.70
2019-01-11T18:12:03.561Z,25.50
2019-01-11T18:13:03.566Z,18.10
2019-01-11T18:14:03.541Z,18.10
2019-01-11T18:15:03.563Z,15.70
2019-01-11T18:16:03.519Z,13.00
2019-01-11T18:17:03.517Z,15.40
2019-01-11T18:18:03.501Z,12.50
2019-01-11T18:19:03.495Z,14.70
2019-01-11T18:20:03.543Z,11.10
2019-01-11T18:21:03.483Z,11.20
2019-01-11T18:22:03.462Z,13.00
2019-01-11T18:23:06.964Z,10.30
2019-01-11T18:24:03.437Z,12.40
2019-01-11T18:25:03.431Z,9.50
2019-01-11T18:26:03.425Z,10.50
2019-01-11T18:27:03.409Z,10.10
2019-01-11T18:28:03.394Z,9.50
2019-01-11T18:29:03.389Z,12.40
2019-01-11T18:30:03.366Z,12.10
2019-01-11T18:31:03.391Z,11.90
2019-01-11T18:32:03.345Z,9.10
2019-01-11T18:33:03.336Z,8.80
2019-01-11T18:34:03.332Z,11.60
2019-01-11T18:35:03.315Z,10.80
2019-01-11T18:36:03.319Z,9.20
2019-01-11T18:37:03.298Z,7.60
2019-01-11T18:38:03.271Z,11.20
2019-01-11T18:39:03.279Z,9.90
2019-01-11T18:40:03.251Z,9.30
2019-01-11T18:41:03.275Z,10.00
2019-01-11T18:42:03.235Z,15.40
2019-01-11T18:43:03.234Z,9.30
2019-01-11T18:44:03.206Z,12.00
2019-01-11T18:45:03.216Z,8.00
2019-01-11T18:46:03.208Z,8.20
2019-01-11T18:47:03.188Z,8.20
2019-01-11T18:48:03.180Z,8.90
2019-01-11T18:49:04.330Z,8.60
2019-01-11T18:50:03.953Z,11.00
2019-01-11T18:51:03.165Z,7.60
2019-01-11T18:52:03.119Z,9.60
2019-01-11T18:53:03.119Z,12.80
2019-01-11T18:54:03.102Z,22.70
2019-01-11T18:55:03.100Z,16.90
2019-01-11T18:56:05.564Z,22.20
2019-01-11T18:57:03.072Z,20.20
2019-01-11T18:58:03.055Z,26.80
2019-01-11T18:59:03.041Z,17.50
2019-01-11T19:00:03.031Z,21.70
2019-01-11T19:01:03.030Z,27.10
2019-01-11T19:02:03.034Z,26.30
2019-01-11T19:03:03.010Z,18.50
2019-01-11T19:04:02.987Z,17.80
2019-01-11T19:05:02.984Z,19.20
2019-01-11T19:06:02.962Z,14.30
2019-01-11T19:07:02.998Z,15.90
2019-01-11T19:08:02.935Z,14.70
2019-01-11T19:09:02.939Z,11.40
2019-01-11T19:10:02.921Z,12.00
2019-01-11T19:11:02.920Z,14.70
2019-01-11T19:12:02.917Z,11.90
2019-01-11T19:13:02.920Z,36.00
2019-01-11T19:14:02.877Z,37.50
2019-01-11T19:15:02.880Z,48.00
2019-01-11T19:16:02.851Z,63.60
2019-01-11T19:17:03.879Z,57.60
2019-01-11T19:18:02.832Z,48.10
2019-01-11T19:19:02.824Z,41.70
2019-01-11T19:20:02.810Z,50.30
2019-01-11T19:21:02.820Z,30.70
2019-01-11T19:22:02.782Z,25.80
2019-01-11T19:23:02.816Z,25.70
2019-01-11T19:24:02.766Z,27.60
2019-01-11T19:25:02.776Z,22.30
2019-01-11T19:26:02.758Z,24.70
2019-01-11T19:27:02.767Z,20.80
2019-01-11T19:28:02.739Z,21.70
2019-01-11T19:29:02.722Z,27.10
2019-01-11T19:30:02.703Z,33.70
2019-01-11T19:31:02.704Z,57.00
2019-01-11T19:32:02.676Z,55.80
2019-01-11T19:33:03.713Z,44.70
2019-01-11T19:34:02.658Z,64.40
2019-01-11T19:35:02.644Z,46.00
2019-01-11T19:36:02.685Z,37.10
2019-01-11T19:37:02.634Z,34.60
2019-01-11T19:38:02.629Z,32.50
2019-01-11T19:39:04.020Z,30.40
2019-01-11T19:40:02.580Z,40.10
2019-01-11T19:41:02.591Z,36.80
2019-01-11T19:42:02.568Z,42.50
2019-01-11T19:43:02.606Z,36.30
2019-01-11T19:44:02.540Z,49.80
2019-01-11T19:45:02.537Z,40.10
2019-01-11T19:46:02.521Z,37.40
2019-01-11T19:47:02.524Z,42.80
2019-01-11T19:48:02.533Z,39.60
2019-01-11T19:49:02.500Z,29.20
2019-01-11T19:50:02.468Z,42.50
2019-01-11T19:51:02.492Z,33.20
2019-01-11T19:52:02.470Z,32.80
2019-01-11T19:53:02.459Z,31.80
2019-01-11T19:54:02.465Z,34.90
2019-01-11T19:55:02.453Z,33.00
2019-01-11T19:56:02.413Z,49.40
2019-01-11T19:57:02.402Z,44.40
2019-01-11T19:58:02.417Z,37.30
2019-01-11T19:59:02.412Z,38.30
2019-01-11T20:00:02.375Z,67.40
2019-01-11T20:01:02.466Z,60.20
2019-01-11T20:02:02.340Z,59.40
2019-01-11T20:03:02.344Z,49.40
2019-01-11T20:04:02.345Z,32.30
2019-01-11T20:05:02.339Z,39.50
2019-01-11T20:06:02.311Z,54.80
2019-01-11T20:07:02.297Z,47.10
2019-01-11T20:08:02.284Z,44.00
2019-01-11T20:09:02.293Z,72.10
2019-01-11T20:10:02.258Z,60.30
2019-01-11T20:11:02.246Z,48.50
2019-01-11T20:12:02.258Z,55.80
2019-01-11T20:13:02.247Z,58.90
2019-01-11T20:14:02.234Z,59.20
2019-01-11T20:15:02.218Z,57.70
2019-01-11T20:16:02.191Z,45.00
2019-01-11T20:17:02.184Z,43.90
2019-01-11T20:18:02.188Z,54.20
2019-01-11T20:19:02.179Z,48.40
2019-01-11T20:20:02.146Z,44.30
2019-01-11T20:21:02.143Z,41.60
2019-01-11T20:22:02.126Z,55.90
2019-01-11T20:23:02.868Z,57.20
2019-01-11T20:24:02.129Z,42.20
2019-01-11T20:25:02.096Z,38.40
2019-01-11T20:26:02.074Z,39.60
2019-01-11T20:27:02.077Z,48.10
2019-01-11T20:28:02.053Z,52.40
2019-01-11T20:29:02.077Z,43.30
2019-01-11T20:30:02.025Z,45.40
2019-01-11T20:31:02.022Z,33.00
2019-01-11T20:32:02.009Z,42.30
2019-01-11T20:33:02.000Z,32.50
2019-01-11T20:34:02.008Z,39.40
2019-01-11T20:35:01.982Z,45.10
2019-01-11T20:36:01.961Z,47.20
2019-01-11T20:37:01.960Z,39.50
2019-01-11T20:38:01.945Z,53.40
2019-01-11T20:39:01.941Z,37.10
2019-01-11T20:40:01.937Z,39.60
2019-01-11T20:41:01.964Z,43.60
2019-01-11T20:42:01.915Z,47.90
2019-01-11T20:43:01.973Z,49.70
2019-01-11T20:44:01.883Z,48.80
2019-01-11T20:45:01.942Z,55.00
2019-01-11T20:46:03.251Z,51.70
2019-01-11T20:47:01.897Z,49.10
2019-01-11T20:48:01.830Z,31.50
2019-01-11T20:49:01.921Z,42.80
2019-01-11T20:50:01.826Z,35.40
2019-01-11T20:51:01.823Z,28.70
2019-01-11T20:52:01.783Z,43.50
2019-01-11T20:53:01.838Z,46.00
2019-01-11T20:54:01.771Z,45.00
2019-01-11T20:55:01.899Z,43.80
2019-01-11T20:56:01.749Z,51.20
2019-01-11T20:57:01.763Z,43.50
2019-01-11T20:58:01.721Z,43.40
2019-01-11T20:59:01.778Z,37.80
2019-01-11T21:00:01.719Z,32.40
2019-01-11T21:01:01.801Z,36.70
2019-01-11T21:02:01.676Z,32.30
2019-01-11T21:03:01.702Z,29.20
2019-01-11T21:04:01.656Z,31.50
2019-01-11T21:05:02.674Z,35.40
2019-01-11T21:06:01.622Z,36.80
2019-01-11T21:07:01.734Z,38.30
2019-01-11T21:08:01.607Z,27.80
2019-01-11T21:09:01.647Z,29.80
2019-01-11T21:10:01.600Z,38.50
2019-01-11T21:11:01.658Z,27.00
2019-01-11T21:12:01.562Z,33.90
2019-01-11T21:13:02.033Z,42.80
2019-01-11T21:14:01.545Z,41.30
2019-01-11T21:15:01.620Z,29.30
2019-01-11T21:16:01.521Z,33.10
2019-01-11T21:17:01.686Z,36.70
2019-01-11T21:18:01.496Z,39.40
2019-01-11T21:19:01.516Z,30.40
2019-01-11T21:20:01.496Z,26.40
2019-01-11T21:21:01.527Z,37.80
2019-01-11T21:22:01.445Z,53.40
2019-01-11T21:23:02.458Z,32.70
2019-01-11T21:24:01.432Z,34.90
2019-01-11T21:25:01.488Z,33.10
2019-01-11T21:26:01.408Z,39.60
2019-01-11T21:27:01.468Z,37.40
2019-01-11T21:28:01.386Z,38.60
2019-01-11T21:29:01.385Z,39.10
2019-01-11T21:30:01.394Z,35.80
2019-01-11T21:31:01.384Z,30.50
2019-01-11T21:32:01.339Z,26.60
2019-01-11T21:33:01.406Z,34.50
2019-01-11T21:34:01.334Z,29.10
2019-01-11T21:35:01.347Z,22.00
2019-01-11T21:36:01.296Z,24.10
2019-01-11T21:37:02.353Z,29.00
2019-01-11T21:38:01.283Z,20.30
2019-01-11T21:39:01.345Z,17.70
2019-01-11T21:40:01.274Z,20.20
2019-01-11T21:41:01.254Z,16.90
2019-01-11T21:42:01.224Z,20.50
2019-01-11T21:43:01.270Z,15.50
2019-01-11T21:44:01.216Z,22.00
2019-01-11T21:45:01.303Z,17.80
2019-01-11T21:46:03.556Z,14.30
2019-01-11T21:47:01.304Z,22.70
2019-01-11T21:48:01.168Z,24.30
2019-01-11T21:49:01.213Z,21.70
2019-01-11T21:50:01.135Z,20.50
2019-01-11T21:51:01.260Z,23.20
2019-01-11T21:52:01.119Z,23.60
2019-01-11T21:53:01.133Z,26.20
2019-01-11T21:54:01.092Z,21.20
2019-01-11T21:55:01.155Z,21.70
2019-01-11T21:56:01.112Z,25.10
2019-01-11T21:57:01.164Z,26.70
2019-01-11T21:58:01.054Z,26.00
2019-01-11T21:59:01.078Z,19.50
2019-01-11T22:00:01.027Z,18.20
2019-01-11T22:01:01.123Z,22.60
2019-01-11T22:02:01.006Z,13.90
2019-01-11T22:03:01.121Z,53.90
2019-01-11T22:04:00.984Z,20.20
2019-01-11T22:05:01.026Z,20.40
2019-01-11T22:06:00.984Z,19.30
2019-01-11T22:07:01.085Z,16.90
2019-01-11T22:08:00.948Z,18.40
2019-01-11T22:09:01.157Z,13.80
2019-01-11T22:10:00.924Z,18.00
2019-01-11T22:11:01.059Z,17.50
2019-01-11T22:12:00.898Z,23.80
2019-01-11T22:13:00.991Z,20.30
2019-01-11T22:14:00.871Z,14.40
2019-01-11T22:15:00.954Z,17.80
2019-01-11T22:16:00.872Z,22.70
2019-01-11T22:17:00.928Z,20.30
2019-01-11T22:18:00.825Z,16.40
2019-01-11T22:19:00.996Z,19.70
2019-01-11T22:20:00.821Z,23.60
2019-01-11T22:21:00.917Z,22.60
2019-01-11T22:22:00.792Z,20.90
2019-01-11T22:23:00.930Z,15.50
2019-01-11T22:24:03.198Z,22.00
2019-01-11T22:25:00.897Z,19.60
2019-01-11T22:26:00.798Z,17.20
2019-01-11T22:27:00.871Z,23.40
2019-01-11T22:28:00.716Z,20.10
2019-01-11T22:29:03.908Z,20.40
2019-01-11T22:30:00.700Z,20.20
2019-01-11T22:31:00.904Z,26.30
2019-01-11T22:32:00.691Z,28.40
2019-01-11T22:33:01.801Z,17.80